Time;durP1;ratioP1;P1;durP2;ratioP2;P2;SDS_P1;SDS_P2;PMS_P1;PMS_P2;Temp;Humidity;BMP_temperature;BMP_pressure;BME280_temperature;BME280_humidity;BME280_pressure;Samples;Min_cycle;Max_cycle;Signal;HPM_P1;HPM_P2
2022/03/17 00:01:37;;;;;;;;;12.33;11.67;;;;;12.10;68.36;102003.47;5022596;28;45216;-69
2022/03/17 00:04:03;;;;;;;;;12.67;12.00;;;;;12.05;68.62;102001.09;5022033;28;45315;-67
2022/03/17 00:06:28;;;;;;;;;15.00;13.67;;;;;12.06;68.60;102016.44;5022670;28;45290;-68
2022/03/17 00:08:54;;;;;;;;;11.67;9.00;;;;;12.00;68.86;102007.91;5017245;28;46921;-69
2022/03/17 00:11:20;;;;;;;;;16.00;13.00;;;;;11.98;68.91;102013.50;5017013;28;45659;-69
2022/03/17 00:13:46;;;;;;;;;11.67;11.67;;;;;11.90;69.26;102020.59;5022033;28;45280;-69
2022/03/17 00:16:12;;;;;;;;;12.67;12.67;;;;;11.87;69.42;102018.09;5022555;28;45369;-69
2022/03/17 00:18:37;;;;;;;;;11.00;10.33;;;;;11.91;69.25;102033.19;5021662;28;46171;-68
2022/03/17 00:21:03;;;;;;;;;12.67;12.67;;;;;11.87;69.40;102031.72;5020789;28;46007;-69
2022/03/17 00:23:29;;;;;;;;;15.33;13.33;;;;;11.94;69.09;102038.41;5021821;28;45562;-69
2022/03/17 00:25:55;;;;;;;;;12.67;12.67;;;;;11.91;69.38;102034.06;5020793;28;45549;-67
2022/03/17 00:28:21;;;;;;;;;16.00;14.67;;;;;11.93;69.54;102047.56;5021010;28;46344;-67
2022/03/17 00:30:46;;;;;;;;;18.67;13.67;;;;;11.87;69.59;102034.44;5016319;28;46221;-67
2022/03/17 00:33:11;;;;;;;;;20.33;12.00;;;;;11.73;69.29;102048.28;5021642;28;45779;-68
2022/03/17 00:35:42;;;;;;;;;17.33;16.67;;;;;11.80;69.95;102050.41;5022466;28;45418;-68
2022/03/17 00:38:10;;;;;;;;;20.67;18.33;;;;;11.70;69.93;102055.69;5021427;28;46425;-68
2022/03/17 00:40:36;;;;;;;;;18.67;15.33;;;;;11.78;70.24;102066.00;5021265;28;45447;-70
2022/03/17 00:43:03;;;;;;;;;19.33;17.00;;;;;11.65;70.17;102055.22;5020159;28;45314;-69
2022/03/17 00:45:29;;;;;;;;;17.67;17.67;;;;;11.69;69.92;102075.75;5037412;28;46538;-69
2022/03/17 00:47:55;;;;;;;;;23.00;20.67;;;;;11.71;70.17;102081.06;5020066;28;48454;-66
2022/03/17 00:50:21;;;;;;;;;17.00;17.00;;;;;11.72;70.21;102077.38;5021322;28;45308;-66
2022/03/17 00:52:46;;;;;;;;;26.75;24.75;;;;;11.67;70.29;102087.75;5020976;28;45359;-69
2022/03/17 00:55:14;;;;;;;;;28.00;20.50;;;;;11.61;70.93;102080.97;5022570;28;45406;-69
2022/03/17 00:57:39;;;;;;;;;24.00;24.00;;;;;11.52;70.79;102078.97;5025263;28;45420;-69
2022/03/17 01:00:07;;;;;;;;;25.25;23.25;;;;;11.61;70.75;102091.84;5023107;28;45521;-69
2022/03/17 01:02:32;;;;;;;;;30.75;27.75;;;;;11.67;71.00;102090.50;5025220;28;45322;-69
2022/03/17 01:04:58;;;;;;;;;29.33;24.67;;;;;11.70;70.65;102098.41;5024618;28;45216;-69
2022/03/17 01:07:24;;;;;;;;;29.25;26.25;;;;;11.64;70.59;102097.03;5025022;28;46585;-69
2022/03/17 01:09:49;;;;;;;;;22.25;21.25;;;;;11.69;70.33;102102.09;5024372;28;45913;-69
2022/03/17 01:12:15;;;;;;;;;22.75;22.75;;;;;11.69;70.60;102100.25;5024916;28;45337;-69
2022/03/17 01:14:40;;;;;;;;;25.75;22.00;;;;;11.68;70.90;102104.00;5024835;28;45500;-69
2022/03/17 01:17:05;;;;;;;;;21.75;21.25;;;;;11.64;70.70;102116.09;5023534;28;48081;-67
2022/03/17 01:19:32;;;;;;;;;32.00;25.00;;;;;11.62;70.95;102118.06;5024201;28;45391;-67
2022/03/17 01:21:57;;;;;;;;;30.00;27.25;;;;;11.54;71.26;102114.25;5025081;28;45445;-67
2022/03/17 01:24:23;;;;;;;;;30.50;25.25;;;;;11.55;71.09;102113.22;5022793;28;45441;-67
2022/03/17 01:26:48;;;;;;;;;18.75;18.75;;;;;11.51;71.09;102117.19;5027988;28;48167;-68
2022/03/17 01:29:14;;;;;;;;;26.25;24.75;;;;;11.51;71.17;102122.63;5023216;28;45483;-68
2022/03/17 01:31:39;;;;;;;;;27.00;25.00;;;;;11.53;71.24;102115.22;5033509;28;45355;-70
2022/03/17 01:34:05;;;;;;;;;31.50;31.00;;;;;11.46;72.05;102114.84;5021820;28;45380;-68
2022/03/17 01:36:30;;;;;;;;;26.00;24.25;;;;;11.38;71.75;102128.19;5023513;28;48160;-68
2022/03/17 01:38:56;;;;;;;;;25.25;24.75;;;;;11.45;72.23;102129.44;5022839;28;45509;-68
2022/03/17 01:41:22;;;;;;;;;27.75;24.75;;;;;11.46;71.83;102141.19;5024541;28;45373;-69
2022/03/17 01:43:48;;;;;;;;;24.25;22.25;;;;;11.44;72.01;102124.97;5024482;28;45427;-68
2022/03/17 01:46:15;;;;;;;;;29.25;27.50;;;;;11.40;71.61;102126.19;5024502;28;45742;-68
2022/03/17 01:48:41;;;;;;;;;29.50;28.25;;;;;11.40;72.31;102137.06;5023754;28;45399;-69
2022/03/17 01:51:07;;;;;;;;;28.25;28.25;;;;;11.43;71.89;102142.28;5024365;28;46591;-68
2022/03/17 01:53:33;;;;;;;;;19.75;18.50;;;;;11.43;71.97;102147.72;5023994;28;45394;-68
2022/03/17 01:55:59;;;;;;;;;33.25;26.75;;;;;11.47;72.14;102143.75;5023938;28;45816;-68
2022/03/17 01:58:24;;;;;;;;;30.00;27.50;;;;;11.45;71.82;102156.66;5038056;28;45578;-68
2022/03/17 02:00:50;;;;;;;;;22.75;22.50;;;;;11.41;71.82;102152.41;5024302;28;45746;-68
2022/03/17 02:03:16;;;;;;;;;29.25;25.00;;;;;11.36;72.06;102165.53;5023965;28;45264;-68
2022/03/17 02:05:43;;;;;;;;;26.33;21.67;;;;;11.44;72.19;102163.06;5023484;28;46122;-68
2022/03/17 02:08:10;;;;;;;;;30.00;28.00;;;;;11.37;71.64;102169.97;5023442;28;45377;-69
2022/03/17 02:13:30;;;;;;;;;22.75;22.25;;;;;11.18;72.30;102170.50;5005054;28;45421;-68
2022/03/17 02:15:56;;;;;;;;;22.00;21.50;;;;;11.16;72.52;102180.66;5022280;28;46208;-69
2022/03/17 02:18:22;;;;;;;;;24.00;23.00;;;;;11.18;72.01;102175.09;5022654;28;45895;-69
2022/03/17 02:20:48;;;;;;;;;22.50;22.50;;;;;11.22;72.26;102185.63;5023151;28;45672;-68
2022/03/17 02:26:03;;;;;;;;;23.33;22.00;;;;;11.22;72.35;102206.53;5022690;28;45911;-68
2022/03/17 02:28:32;;;;;;;;;22.25;20.75;;;;;11.11;72.15;102195.59;5022183;28;45343;-68
2022/03/17 02:30:59;;;;;;;;;25.67;24.00;;;;;11.20;71.97;102198.47;5021655;28;45318;-68
2022/03/17 02:33:25;;;;;;;;;20.67;20.67;;;;;11.15;71.73;102219.72;5036961;28;45503;-68
2022/03/17 02:35:53;;;;;;;;;18.33;16.67;;;;;11.09;72.02;102212.03;5022677;28;45720;-68
2022/03/17 02:38:20;;;;;;;;;23.25;21.50;;;;;11.08;72.00;102214.88;5022263;28;45345;-68
2022/03/17 02:40:50;;;;;;;;;22.00;20.00;;;;;11.07;71.99;102211.28;5022475;28;45496;-68
2022/03/17 02:43:15;;;;;;;;;27.67;20.00;;;;;11.08;72.25;102221.19;5022138;28;45575;-68
2022/03/17 02:45:43;;;;;;;;;23.00;21.33;;;;;10.96;71.75;102221.25;5023084;28;47234;-68
2022/03/17 02:48:09;;;;;;;;;19.67;18.67;;;;;11.02;71.81;102216.22;5022997;28;45481;-68
2022/03/17 02:50:35;;;;;;;;;26.67;21.33;;;;;10.97;71.71;102214.78;5022977;28;45431;-68
2022/03/17 02:53:05;;;;;;;;;23.75;23.75;;;;;10.88;72.13;102206.34;5022683;28;45598;-69
2022/03/17 02:55:38;;;;;;;;;19.33;17.67;;;;;10.91;71.70;102222.44;5022555;28;45715;-68
2022/03/17 02:58:05;;;;;;;;;21.67;19.00;;;;;10.90;72.22;102236.16;5021300;28;47572;-69
2022/03/17 03:00:31;;;;;;;;;23.00;21.67;;;;;10.95;72.24;102238.53;5023157;28;45181;-69
2022/03/17 03:02:57;;;;;;;;;26.50;23.00;;;;;10.95;71.73;102239.41;5019185;28;45246;-68
2022/03/17 03:05:22;;;;;;;;;16.50;12.50;;;;;10.96;71.62;102226.69;5022909;28;45325;-69
2022/03/17 03:07:48;;;;;;;;;20.50;18.50;;;;;10.78;71.48;102231.63;5035387;28;45230;-68
2022/03/17 03:10:13;;;;;;;;;26.00;23.67;;;;;10.84;71.61;102237.47;5020613;28;45550;-69
2022/03/17 03:12:40;;;;;;;;;21.00;20.00;;;;;10.81;71.44;102237.69;5022222;28;45311;-68
2022/03/17 03:15:06;;;;;;;;;19.33;16.33;;;;;10.85;70.81;102255.53;5022162;28;45485;-68
2022/03/17 03:17:32;;;;;;;;;18.67;15.67;;;;;10.76;70.94;102242.63;5022228;28;45426;-69
2022/03/17 03:19:58;;;;;;;;;20.00;19.00;;;;;10.77;70.98;102257.94;5022568;28;45442;-69
2022/03/17 03:22:28;;;;;;;;;17.33;17.33;;;;;10.80;70.50;102255.00;5022236;28;45525;-69
2022/03/17 03:24:54;;;;;;;;;15.67;12.00;;;;;10.76;70.56;102258.91;5021851;28;45559;-68
2022/03/17 03:27:20;;;;;;;;;15.67;15.33;;;;;10.56;70.69;102259.53;5022646;28;45480;-71
2022/03/17 03:29:46;;;;;;;;;23.00;20.67;;;;;10.54;70.95;102256.03;5020882;28;45571;-68
2022/03/17 03:32:12;;;;;;;;;19.33;18.67;;;;;10.56;70.64;102258.66;5022077;28;45454;-68
2022/03/17 03:34:37;;;;;;;;;20.75;18.50;;;;;10.56;70.54;102262.25;5022093;28;45388;-68
2022/03/17 03:39:47;;;;;;;;;20.00;18.00;;;;;10.50;70.57;102281.72;5022351;28;45429;-68
2022/03/17 03:42:12;;;;;;;;;17.00;14.50;;;;;10.43;70.87;102296.72;5022772;28;45466;-68
2022/03/17 03:44:38;;;;;;;;;23.00;23.00;;;;;10.34;70.88;102287.38;5020773;28;47053;-68
2022/03/17 03:47:07;;;;;;;;;20.00;19.00;;;;;10.39;71.74;102296.06;5022587;28;45459;-69
2022/03/17 03:49:34;;;;;;;;;17.33;16.00;;;;;10.26;71.20;102302.47;5022135;28;45563;-68
2022/03/17 03:51:59;;;;;;;;;20.00;18.50;;;;;10.23;71.42;102310.84;5022927;28;45296;-68
2022/03/17 03:54:24;;;;;;;;;21.00;18.67;;;;;10.26;71.25;102305.19;5016554;28;47196;-68
2022/03/17 03:56:53;;;;;;;;;20.00;20.00;;;;;10.24;71.01;102323.44;5034419;28;45326;-68
2022/03/17 03:59:21;;;;;;;;;16.33;16.33;;;;;10.12;71.08;102322.44;5021908;28;45481;-68
2022/03/17 04:01:53;;;;;;;;;19.00;16.67;;;;;10.04;70.03;102336.53;5021625;28;45573;-68
2022/03/17 04:04:19;;;;;;;;;19.00;16.00;;;;;9.92;70.38;102342.81;5021779;28;45463;-68
2022/03/17 04:06:47;;;;;;;;;19.00;17.33;;;;;9.93;70.73;102344.56;5022377;28;45248;-68
2022/03/17 04:09:14;;;;;;;;;14.33;13.33;;;;;10.02;70.16;102357.50;5020800;28;45524;-68
2022/03/17 04:11:43;;;;;;;;;14.33;11.33;;;;;10.01;69.85;102353.03;5022834;28;45362;-68
2022/03/17 04:14:10;;;;;;;;;13.33;13.33;;;;;9.87;68.98;102358.53;5021701;28;46393;-68
2022/03/17 04:16:35;;;;;;;;;16.00;15.00;;;;;9.92;68.76;102364.53;5021960;28;45324;-68
2022/03/17 04:19:01;;;;;;;;;9.00;8.67;;;;;9.88;68.58;102365.72;5021802;28;45203;-68
2022/03/17 04:21:27;;;;;;;;;13.33;11.00;;;;;9.77;69.17;102368.31;5034618;28;45575;-68
2022/03/17 04:23:53;;;;;;;;;12.00;8.67;;;;;9.67;69.27;102381.59;5013471;28;45413;-68
2022/03/17 04:26:18;;;;;;;;;15.67;15.00;;;;;9.66;69.24;102374.44;5017113;28;45604;-68
2022/03/17 04:28:44;;;;;;;;;20.33;17.67;;;;;9.68;69.40;102390.63;5023381;28;45620;-68
2022/03/17 04:31:09;;;;;;;;;16.00;10.67;;;;;9.67;69.26;102394.31;5033882;28;45172;-68
2022/03/17 04:33:35;;;;;;;;;15.67;13.67;;;;;9.67;69.19;102392.47;5016715;28;45319;-68
2022/03/17 04:36:02;;;;;;;;;13.33;13.33;;;;;9.74;69.01;102395.63;5023992;28;45580;-68
2022/03/17 04:38:28;;;;;;;;;13.00;11.67;;;;;9.76;69.09;102400.00;5025121;28;45469;-68
2022/03/17 04:40:54;;;;;;;;;14.00;12.00;;;;;9.78;68.74;102413.47;5025428;28;45458;-69
2022/03/17 04:43:20;;;;;;;;;14.33;13.33;;;;;9.80;68.72;102416.94;5024905;28;45500;-69
2022/03/17 04:45:46;;;;;;;;;13.67;11.00;;;;;9.68;68.70;102409.63;5036119;28;45462;-69
2022/03/17 04:48:12;;;;;;;;;13.33;13.33;;;;;9.85;68.44;102422.06;5024864;28;45189;-69
2022/03/17 04:50:38;;;;;;;;;13.33;11.00;;;;;9.79;68.07;102426.03;5025477;28;45297;-70
2022/03/17 04:53:49;;;;;;;;;11.00;7.00;;;;;9.77;67.70;102430.72;5023154;28;46949;-68
2022/03/17 04:55:49;;;;;;;;;7.33;7.33;;;;;9.68;67.55;102428.63;5027389;28;45466;-67
2022/03/17 04:58:15;;;;;;;;;10.00;8.67;;;;;9.72;67.25;102420.16;5024490;28;45382;-68
2022/03/17 05:00:43;;;;;;;;;10.67;9.33;;;;;9.73;67.61;102429.16;5023905;28;45502;-68
2022/03/17 05:03:09;;;;;;;;;9.00;9.00;;;;;9.68;67.47;102429.50;5019933;28;45602;-68
2022/03/17 05:05:35;;;;;;;;;13.33;12.33;;;;;9.77;67.75;102441.59;5022588;28;45416;-68
2022/03/17 05:08:00;;;;;;;;;5.33;4.67;;;;;9.66;67.75;102427.84;5022383;28;45883;-68
2022/03/17 05:10:28;;;;;;;;;11.00;11.00;;;;;9.82;67.90;102442.13;5023567;28;45400;-68
2022/03/17 05:12:54;;;;;;;;;8.33;8.00;;;;;9.87;66.73;102444.53;5023513;28;46095;-68
2022/03/17 05:15:20;;;;;;;;;8.33;8.33;;;;;9.85;66.90;102444.66;5021539;28;46043;-68
2022/03/17 05:17:47;;;;;;;;;10.67;10.00;;;;;9.89;67.22;102454.34;5038340;28;45481;-68
2022/03/17 05:20:12;;;;;;;;;11.00;9.33;;;;;9.89;66.97;102458.88;5021951;28;45499;-68
2022/03/17 05:22:39;;;;;;;;;9.00;9.00;;;;;9.85;67.50;102458.25;5038460;28;46530;-67
2022/03/17 05:25:06;;;;;;;;;9.00;8.67;;;;;9.74;67.52;102471.63;5022141;28;45461;-68
2022/03/17 05:27:35;;;;;;;;;8.67;8.67;;;;;9.71;67.47;102466.44;5022751;28;45394;-69
2022/03/17 05:30:00;;;;;;;;;15.33;12.33;;;;;9.68;68.08;102467.50;5023016;28;45747;-68
2022/03/17 05:32:25;;;;;;;;;11.67;10.00;;;;;9.72;67.85;102473.56;5022907;28;46021;-68
2022/03/17 05:34:51;;;;;;;;;11.67;10.33;;;;;9.75;68.16;102478.81;5022329;28;45398;-68
2022/03/17 05:37:16;;;;;;;;;13.67;11.33;;;;;9.70;67.85;102491.81;5023123;28;45406;-68
2022/03/17 05:39:41;;;;;;;;;8.33;5.33;;;;;9.68;67.61;102494.63;5020694;28;46692;-68
2022/03/17 05:42:07;;;;;;;;;12.33;11.33;;;;;9.81;67.62;102499.25;5017157;28;46431;-69
2022/03/17 05:44:33;;;;;;;;;13.67;9.67;;;;;9.85;68.03;102506.22;5022996;28;45782;-68
2022/03/17 05:46:58;;;;;;;;;17.00;15.00;;;;;9.94;67.60;102505.59;5024706;28;45347;-68
2022/03/17 05:49:24;;;;;;;;;13.33;11.67;;;;;9.76;67.62;102495.00;5023082;28;45487;-67
2022/03/17 05:51:49;;;;;;;;;13.00;11.00;;;;;9.68;68.37;102510.91;5023686;28;46670;-68
2022/03/17 05:54:14;;;;;;;;;7.00;7.00;;;;;9.73;68.37;102510.59;5023821;28;45399;-67
2022/03/17 05:56:40;;;;;;;;;11.33;11.33;;;;;9.76;68.11;102514.00;5024039;28;45308;-67
2022/03/17 05:59:05;;;;;;;;;10.00;8.00;;;;;9.85;68.01;102517.97;5024087;28;45421;-67
2022/03/17 06:01:30;;;;;;;;;25.00;15.33;;;;;9.71;68.26;102532.44;5023871;28;45406;-67
2022/03/17 06:03:57;;;;;;;;;12.33;11.67;;;;;9.79;67.89;102531.06;5023505;28;45266;-67
2022/03/17 06:06:22;;;;;;;;;18.33;15.67;;;;;9.78;67.94;102535.63;5024053;28;45339;-67
2022/03/17 06:08:48;;;;;;;;;12.67;11.33;;;;;9.69;68.38;102534.38;5022505;28;45379;-67
2022/03/17 06:11:13;;;;;;;;;10.67;10.00;;;;;9.71;68.36;102542.44;5023430;28;45474;-68
2022/03/17 06:13:38;;;;;;;;;14.33;13.67;;;;;9.54;68.40;102540.78;5023530;28;45491;-68
2022/03/17 06:16:05;;;;;;;;;16.67;11.67;;;;;9.48;67.70;102551.16;5023588;28;45489;-67
2022/03/17 06:18:31;;;;;;;;;11.33;10.67;;;;;9.56;67.85;102559.69;5023864;28;45417;-68
2022/03/17 06:20:56;;;;;;;;;11.00;10.67;;;;;9.66;67.22;102558.09;5020702;28;47496;-67
2022/03/17 06:23:22;;;;;;;;;7.67;5.67;;;;;9.64;67.09;102560.06;5021426;28;45922;-66
2022/03/17 06:25:49;;;;;;;;;13.67;11.00;;;;;9.58;67.77;102569.44;5023269;28;45295;-67
2022/03/17 06:28:15;;;;;;;;;14.00;14.00;;;;;9.50;67.48;102581.75;5022898;28;45561;-67
2022/03/17 06:30:41;;;;;;;;;14.67;12.33;;;;;9.53;67.46;102584.28;5031564;28;47999;-68
2022/03/17 06:33:07;;;;;;;;;11.33;11.33;;;;;9.43;67.33;102597.56;5021436;28;45784;-67
2022/03/17 06:35:34;;;;;;;;;14.67;11.00;;;;;9.47;66.90;102603.69;5023215;28;45339;-68
2022/03/17 06:38:01;;;;;;;;;15.00;9.00;;;;;9.32;66.76;102605.50;5021757;28;45519;-68
2022/03/17 06:40:27;;;;;;;;;9.67;9.67;;;;;9.40;66.85;102615.88;5022267;28;45331;-68
2022/03/17 06:42:55;;;;;;;;;6.00;4.33;;;;;9.43;66.47;102627.41;5021883;28;45463;-68
2022/03/17 06:45:20;;;;;;;;;15.33;14.00;;;;;9.58;66.41;102633.69;5022058;28;46091;-66
2022/03/17 06:47:46;;;;;;;;;20.67;14.33;;;;;9.59;66.18;102632.75;5023087;28;45466;-69
2022/03/17 06:50:13;;;;;;;;;13.33;8.33;;;;;9.49;65.93;102639.72;5021829;28;46457;-69
2022/03/17 06:52:39;;;;;;;;;8.33;7.00;;;;;9.30;64.78;102645.41;5021559;28;45259;-69
2022/03/17 06:55:05;;;;;;;;;11.00;9.00;;;;;9.42;65.19;102649.22;5020771;28;45401;-69
2022/03/17 06:57:30;;;;;;;;;6.67;6.00;;;;;9.55;65.01;102653.78;5011675;28;45597;-69
2022/03/17 06:59:56;;;;;;;;;8.00;7.67;;;;;9.57;64.86;102645.56;5021773;28;45447;-68
2022/03/17 07:02:21;;;;;;;;;9.00;8.00;;;;;9.52;64.73;102647.66;5022628;28;45449;-68
2022/03/17 07:04:47;;;;;;;;;5.00;5.00;;;;;9.36;64.64;102659.47;5022137;28;45477;-68
2022/03/17 07:07:13;;;;;;;;;9.33;8.00;;;;;9.50;64.14;102672.16;5021694;28;45416;-69
2022/03/17 07:09:38;;;;;;;;;5.67;5.33;;;;;9.61;64.58;102666.97;5019151;28;47278;-69
2022/03/17 07:12:05;;;;;;;;;9.33;7.00;;;;;9.62;63.54;102671.44;5021526;28;45567;-68
2022/03/17 07:14:30;;;;;;;;;6.67;4.67;;;;;9.37;63.28;102658.50;5019284;28;45359;-68
2022/03/17 07:16:56;;;;;;;;;7.00;7.00;;;;;9.29;63.52;102673.50;5022565;28;45354;-68
2022/03/17 07:19:21;;;;;;;;;9.67;7.67;;;;;9.48;63.84;102686.81;5020107;28;47068;-67
2022/03/17 07:21:47;;;;;;;;;6.67;6.67;;;;;9.45;63.07;102695.13;5020700;28;45288;-67
2022/03/17 07:24:12;;;;;;;;;8.00;7.00;;;;;9.61;63.25;102694.09;5021282;28;45935;-68
2022/03/17 07:26:41;;;;;;;;;6.67;5.00;;;;;9.83;63.05;102703.63;5020630;28;45426;-69
2022/03/17 07:29:08;;;;;;;;;8.33;8.00;;;;;9.91;62.76;102701.31;5019482;28;47844;-69
2022/03/17 07:31:33;;;;;;;;;8.67;8.67;;;;;9.85;62.48;102708.00;5022249;28;45177;-68
2022/03/17 07:34:01;;;;;;;;;7.67;6.00;;;;;9.81;62.55;102717.28;5021461;28;45319;-68
2022/03/17 07:36:27;;;;;;;;;7.00;7.00;;;;;9.79;61.86;102719.22;5022426;28;45529;-68
2022/03/17 07:38:57;;;;;;;;;9.00;8.00;;;;;9.81;62.71;102725.44;5019656;28;48029;-68
2022/03/17 07:41:23;;;;;;;;;13.33;8.33;;;;;9.64;62.18;102721.03;5019568;28;45371;-69
2022/03/17 07:43:49;;;;;;;;;8.67;6.00;;;;;9.62;62.69;102727.56;5020953;28;45806;-70
2022/03/17 07:46:15;;;;;;;;;7.33;6.67;;;;;9.71;62.32;102722.44;5028316;28;45316;-69
2022/03/17 07:48:41;;;;;;;;;12.33;10.67;;;;;9.79;62.13;102721.94;5019435;28;45343;-69
2022/03/17 07:51:08;;;;;;;;;8.00;4.00;;;;;9.84;62.41;102727.97;5022461;28;45835;-67
2022/03/17 07:53:34;;;;;;;;;12.33;10.00;;;;;10.02;62.57;102740.38;5021655;28;45263;-68
2022/03/17 07:56:02;;;;;;;;;13.33;12.00;;;;;10.05;62.09;102737.47;5020601;28;45488;-68
2022/03/17 07:58:27;;;;;;;;;9.33;8.00;;;;;10.01;61.63;102746.78;5021310;28;45814;-67
2022/03/17 08:00:55;;;;;;;;;8.00;8.00;;;;;9.93;60.92;102753.69;5021833;28;45391;-68
2022/03/17 08:03:21;;;;;;;;;10.00;5.67;;;;;10.01;61.79;102763.06;5024393;28;45278;-68
2022/03/17 08:05:48;;;;;;;;;10.67;8.00;;;;;9.94;60.79;102750.84;5025961;28;45592;-68
2022/03/17 08:08:17;;;;;;;;;13.33;10.67;;;;;9.91;60.90;102759.19;5024963;28;46251;-68
2022/03/17 08:10:43;;;;;;;;;16.00;14.67;;;;;9.74;61.49;102759.34;5023758;28;45375;-67
2022/03/17 08:13:09;;;;;;;;;13.67;10.33;;;;;9.81;61.35;102771.59;5021935;28;45372;-69
2022/03/17 08:15:39;;;;;;;;;18.67;16.33;;;;;9.89;61.51;102769.28;5021074;28;45346;-68
2022/03/17 08:18:06;;;;;;;;;10.67;10.67;;;;;9.95;61.40;102778.88;5021328;28;47001;-69
2022/03/17 08:20:32;;;;;;;;;11.67;11.00;;;;;9.98;61.07;102776.84;5025381;28;45269;-69
2022/03/17 08:22:57;;;;;;;;;15.67;12.00;;;;;9.96;61.78;102786.94;5020828;28;45258;-68
2022/03/17 08:25:23;;;;;;;;;18.00;15.00;;;;;10.04;61.55;102787.34;5017641;28;45374;-68
2022/03/17 08:27:52;;;;;;;;;17.33;14.00;;;;;10.16;61.03;102800.13;5024807;28;46766;-68
2022/03/17 08:30:17;;;;;;;;;5.33;4.33;;;;;9.94;61.82;102794.28;5018506;28;45688;-68
2022/03/17 08:32:43;;;;;;;;;10.67;10.67;;;;;9.80;62.27;102796.09;5022806;28;45450;-68
2022/03/17 08:35:10;;;;;;;;;13.33;10.67;;;;;10.06;62.01;102798.97;5023001;28;45509;-69
2022/03/17 08:37:43;;;;;;;;;11.33;10.00;;;;;9.81;61.77;102806.88;5037245;28;47275;-68
2022/03/17 08:40:10;;;;;;;;;17.00;11.67;;;;;9.68;62.15;102825.75;5022265;28;45283;-68
2022/03/17 08:42:36;;;;;;;;;15.00;11.00;;;;;9.90;61.79;102813.59;5023830;28;45389;-68
2022/03/17 08:49:18;;;;;;;;;15.67;13.67;;;;;10.02;61.49;102821.84;5020157;28;45474;-67
2022/03/17 08:50:31;;;;;;;;;13.00;13.00;;;;;10.07;61.97;102838.75;5024517;28;45383;-68
2022/03/17 08:52:56;;;;;;;;;18.67;12.33;;;;;10.24;61.08;102840.44;5037047;28;45334;-69
2022/03/17 08:55:22;;;;;;;;;20.67;14.33;;;;;10.24;60.91;102839.56;5014372;28;45324;-67
2022/03/17 08:57:49;;;;;;;;;17.33;13.67;;;;;10.32;60.84;102853.56;5024912;28;45637;-67
2022/03/17 09:00:15;;;;;;;;;16.00;10.67;;;;;9.82;61.51;102852.06;5024271;28;45323;-68
2022/03/17 09:02:44;;;;;;;;;11.33;11.33;;;;;9.81;61.82;102869.31;5025257;28;45247;-68
2022/03/17 09:05:10;;;;;;;;;9.33;6.67;;;;;10.11;61.22;102863.88;5024666;28;45510;-69
2022/03/17 09:07:35;;;;;;;;;14.00;14.00;;;;;10.16;61.72;102864.44;5036720;28;45917;-68
2022/03/17 09:10:01;;;;;;;;;14.33;11.00;;;;;10.33;60.58;102866.16;5022284;28;45390;-69
2022/03/17 09:12:27;;;;;;;;;18.33;14.33;;;;;10.46;60.62;102873.47;5024943;28;45386;-69
2022/03/17 09:14:52;;;;;;;;;18.67;12.67;;;;;10.33;60.52;102855.31;5023395;28;45646;-69
2022/03/17 09:17:18;;;;;;;;;7.67;5.67;;;;;10.30;61.33;102867.22;5024808;28;46260;-68
2022/03/17 09:19:43;;;;;;;;;17.33;13.33;;;;;10.39;59.38;102865.78;5024231;28;45398;-68
2022/03/17 09:22:08;;;;;;;;;8.67;8.67;;;;;10.24;60.55;102874.88;5024214;28;45319;-69
2022/03/17 09:24:34;;;;;;;;;13.33;11.67;;;;;10.44;59.91;102882.69;5024298;28;45387;-68
2022/03/17 09:26:59;;;;;;;;;16.67;13.67;;;;;10.40;60.30;102878.41;5024614;28;45318;-69
2022/03/17 09:29:28;;;;;;;;;9.33;9.33;;;;;10.68;60.36;102883.84;5023754;28;45431;-69
2022/03/17 09:31:54;;;;;;;;;16.67;11.33;;;;;10.75;59.57;102890.66;5023269;28;45312;-68
2022/03/17 09:34:19;;;;;;;;;19.00;14.67;;;;;10.82;59.83;102896.56;5023898;28;45310;-69
2022/03/17 09:36:45;;;;;;;;;17.33;17.00;;;;;10.66;59.75;102901.25;5024270;28;45351;-67
2022/03/17 09:41:54;;;;;;;;;9.00;9.00;;;;;10.55;59.68;102910.06;5024646;28;45252;-67
2022/03/17 09:44:19;;;;;;;;;22.33;15.33;;;;;10.54;60.19;102897.44;5024234;28;45685;-67
2022/03/17 09:46:46;;;;;;;;;19.33;16.67;;;;;10.53;60.27;102903.84;5019282;28;48125;-67
2022/03/17 09:49:12;;;;;;;;;11.00;10.00;;;;;10.79;59.79;102923.97;5023704;28;45374;-67
2022/03/17 09:51:42;;;;;;;;;12.00;9.33;;;;;10.73;59.57;102914.38;5024008;28;45315;-68
2022/03/17 09:54:08;;;;;;;;;22.67;15.67;;;;;10.76;58.49;102908.72;5019828;28;45396;-67
2022/03/17 09:56:33;;;;;;;;;18.67;13.67;;;;;10.77;58.78;102905.03;5023314;28;46480;-68
2022/03/17 09:59:01;;;;;;;;;19.33;18.00;;;;;10.75;59.64;102917.84;5023433;28;45359;-67
2022/03/17 10:01:27;;;;;;;;;15.00;15.00;;;;;10.73;59.97;102922.53;5037814;28;45414;-67
2022/03/17 10:04:01;;;;;;;;;15.33;12.33;;;;;10.84;59.15;102924.53;5022165;28;45616;-67
2022/03/17 10:06:28;;;;;;;;;20.00;18.33;;;;;11.03;59.04;102932.44;5022254;28;47022;-67
2022/03/17 10:08:55;;;;;;;;;12.00;11.00;;;;;10.98;58.09;102929.09;5021154;28;45663;-68
2022/03/17 10:11:32;;;;;;;;;12.00;12.00;;;;;11.16;57.18;102930.66;5024002;28;45417;-68
2022/03/17 10:13:59;;;;;;;;;20.00;17.33;;;;;11.13;57.49;102937.16;5023953;28;45363;-67
2022/03/17 10:16:26;;;;;;;;;14.00;11.50;;;;;11.13;56.63;102922.69;5022242;28;47491;-67
2022/03/17 10:18:57;;;;;;;;;14.33;12.67;;;;;10.76;56.76;102929.59;5021176;28;45474;-67
2022/03/17 10:21:26;;;;;;;;;16.67;11.67;;;;;10.77;57.54;102931.34;5039278;28;45425;-68
2022/03/17 10:24:08;;;;;;;;;16.00;13.33;;;;;10.83;57.82;102942.69;5023311;28;45427;-68
2022/03/17 10:26:42;;;;;;;;;10.67;8.00;;;;;11.11;57.63;102935.50;5017990;28;48157;-68
2022/03/17 10:29:07;;;;;;;;;20.33;16.00;;;;;11.29;56.54;102945.22;5018946;28;45344;-68
2022/03/17 10:32:07;;;;;;;;;20.33;16.67;;;;;11.29;56.87;102948.81;5023793;28;45166;-69
2022/03/17 10:34:56;;;;;;;;;16.33;9.00;;;;;11.00;56.13;102943.50;5023244;28;45517;-69
2022/03/17 10:37:24;;;;;;;;;11.33;10.33;;;;;11.08;56.88;102952.03;5023033;28;45458;-69
2022/03/17 10:39:54;;;;;;;;;12.00;10.67;;;;;11.16;55.97;102960.59;5022447;28;45370;-69
2022/03/17 10:42:27;;;;;;;;;16.67;13.67;;;;;11.30;56.01;102963.28;5023365;28;45320;-69
2022/03/17 10:44:56;;;;;;;;;12.00;12.00;;;;;11.15;55.68;102977.88;5023321;28;45388;-69
2022/03/17 10:47:44;;;;;;;;;13.33;11.67;;;;;11.12;55.81;102972.63;5011179;28;47497;-69
2022/03/17 10:50:17;;;;;;;;;8.67;8.67;;;;;11.25;55.41;102966.28;5022653;28;45385;-69
2022/03/17 10:52:45;;;;;;;;;13.33;11.00;;;;;11.10;55.61;102971.88;5018578;28;45322;-69
2022/03/17 10:55:11;;;;;;;;;14.33;11.33;;;;;11.22;55.64;102977.38;5020577;28;45363;-70
2022/03/17 10:57:37;;;;;;;;;16.00;14.67;;;;;11.23;55.15;102978.25;5035080;28;47128;-69
2022/03/17 11:00:09;;;;;;;;;9.33;8.33;;;;;11.47;55.56;102982.09;5019497;28;45930;-68
2022/03/17 11:02:37;;;;;;;;;14.33;10.33;;;;;11.31;55.43;102976.81;5013640;28;45228;-69
2022/03/17 11:05:06;;;;;;;;;20.33;16.33;;;;;11.26;55.24;102978.94;5023003;28;45255;-67
2022/03/17 11:07:32;;;;;;;;;12.00;9.33;;;;;11.16;55.96;102991.38;5023002;28;45479;-67
2022/03/17 11:10:03;;;;;;;;;19.00;13.67;;;;;11.36;55.93;102990.09;5021910;28;45413;-68
2022/03/17 11:12:28;;;;;;;;;10.33;10.33;;;;;11.56;55.31;102984.22;5023807;28;45361;-67
2022/03/17 11:14:54;;;;;;;;;9.67;5.67;;;;;11.34;55.23;102989.31;5020976;28;45504;-67
2022/03/17 11:17:28;;;;;;;;;13.00;11.33;;;;;11.34;55.85;102997.47;5022593;28;45450;-67
2022/03/17 11:19:58;;;;;;;;;11.00;10.67;;;;;11.38;55.53;102992.72;5021956;28;45455;-68
2022/03/17 11:22:28;;;;;;;;;17.00;14.00;;;;;11.48;54.71;102993.88;5023238;28;45235;-68
2022/03/17 11:25:34;;;;;;;;;13.67;13.67;;;;;11.54;54.50;103005.22;5021155;28;45473;-68
2022/03/17 11:28:01;;;;;;;;;16.67;15.00;;;;;11.60;54.61;103004.84;5006584;28;46076;-68